createdAt,value
2019-01-10T00:00:12.664Z,0.83
2019-01-10T00:02:41.090Z,1.27
2019-01-10T00:05:11.059Z,1.33
2019-01-10T00:07:39.654Z,1.47
2019-01-10T00:10:10.714Z,1.93
2019-01-10T00:12:39.831Z,2.00
2019-01-10T00:15:11.351Z,1.63
2019-01-10T00:17:39.911Z,1.60
2019-01-10T00:20:10.676Z,1.50
2019-01-10T00:22:39.348Z,1.50
2019-01-10T00:25:10.108Z,1.97
2019-01-10T00:27:38.530Z,1.23
2019-01-10T00:30:10.030Z,1.03
2019-01-10T00:32:38.458Z,1.40
2019-01-10T00:35:08.690Z,1.53
2019-01-10T00:37:37.158Z,2.00
2019-01-10T00:40:11.272Z,1.30
2019-01-10T00:42:48.710Z,1.10
2019-01-10T00:45:12.553Z,0.93
2019-01-10T00:47:41.047Z,0.90
2019-01-10T00:50:12.475Z,1.10
2019-01-10T00:52:41.043Z,1.23
2019-01-10T00:55:09.641Z,1.67
2019-01-10T00:57:38.067Z,1.00
2019-01-10T01:00:09.567Z,0.90
2019-01-10T01:02:37.999Z,1.27
2019-01-10T01:05:09.634Z,0.83
2019-01-10T01:07:38.229Z,1.80
2019-01-10T01:10:12.752Z,1.33
2019-01-10T01:12:41.175Z,2.00
2019-01-10T01:15:12.064Z,1.70
2019-01-10T01:17:40.627Z,2.00
2019-01-10T01:20:11.087Z,1.87
2019-01-10T01:22:39.615Z,2.30
2019-01-10T01:25:10.375Z,1.20
2019-01-10T01:27:38.868Z,2.60
2019-01-10T01:30:12.911Z,1.27
2019-01-10T01:32:41.360Z,1.93
2019-01-10T01:35:10.410Z,1.03
2019-01-10T01:37:39.049Z,1.30
2019-01-10T01:40:13.643Z,0.80
2019-01-10T01:42:42.156Z,1.17
2019-01-10T01:45:12.224Z,1.70
2019-01-10T01:47:40.787Z,1.60
2019-01-10T01:50:12.750Z,1.33
2019-01-10T01:52:41.200Z,1.60
2019-01-10T01:55:10.363Z,1.50
2019-01-10T01:57:38.783Z,1.30
2019-01-10T02:00:10.283Z,1.50
2019-01-10T02:02:38.775Z,1.00
2019-01-10T02:05:08.543Z,2.40
2019-01-10T02:07:37.162Z,1.30
2019-01-10T02:10:08.631Z,1.70
2019-01-10T02:12:37.124Z,1.10
2019-01-10T02:15:05.923Z,1.77
2019-01-10T02:17:34.343Z,0.67
2019-01-10T02:20:03.603Z,1.40
2019-01-10T02:22:32.206Z,1.47
2019-01-10T02:25:00.722Z,1.10
2019-01-10T02:27:29.119Z,1.17
2019-01-10T02:29:57.755Z,1.40
2019-01-10T02:32:26.191Z,1.10
2019-01-10T02:34:54.611Z,1.40
2019-01-10T02:37:23.455Z,1.23
2019-01-10T02:39:52.045Z,1.50
2019-01-10T02:42:20.475Z,1.57
2019-01-10T02:44:49.132Z,1.77
2019-01-10T02:47:17.513Z,1.10
2019-01-10T02:49:45.931Z,1.33
2019-01-10T02:52:14.378Z,1.47
2019-01-10T02:54:42.799Z,1.40
2019-01-10T02:57:11.373Z,0.90
2019-01-10T02:59:39.865Z,1.57
2019-01-10T03:02:08.655Z,0.70
2019-01-10T03:04:37.108Z,1.53
2019-01-10T03:07:05.696Z,1.30
2019-01-10T03:09:34.121Z,1.20
2019-01-10T03:12:02.547Z,1.00
2019-01-10T03:14:31.003Z,1.53
2019-01-10T03:16:59.566Z,1.00
2019-01-10T03:19:27.991Z,1.10
2019-01-10T03:21:56.645Z,1.80
2019-01-10T03:24:25.067Z,1.47
2019-01-10T03:26:53.486Z,1.73
2019-01-10T03:29:21.935Z,0.80
2019-01-10T03:31:50.367Z,1.83
2019-01-10T03:34:18.781Z,1.50
2019-01-10T03:36:47.263Z,1.60
2019-01-10T03:39:15.688Z,0.90
2019-01-10T03:41:44.456Z,2.07
2019-01-10T03:44:13.236Z,1.53
2019-01-10T03:46:41.955Z,1.77
2019-01-10T03:49:10.638Z,2.30
2019-01-10T03:51:39.372Z,1.40
2019-01-10T03:54:07.811Z,1.03
2019-01-10T03:56:36.515Z,1.50
2019-01-10T03:59:05.320Z,1.60
2019-01-10T04:01:34.110Z,2.03
2019-01-10T04:04:02.637Z,1.97
2019-01-10T04:06:31.372Z,2.20
2019-01-10T04:09:00.084Z,1.93
2019-01-10T04:11:28.576Z,1.70
2019-01-10T04:13:57.816Z,1.50
2019-01-10T04:16:26.572Z,1.50
2019-01-10T04:18:55.295Z,1.97
2019-01-10T04:21:24.032Z,2.50
2019-01-10T04:23:54.002Z,1.50
2019-01-10T04:26:22.713Z,2.03
2019-01-10T04:28:51.262Z,2.20
2019-01-10T04:31:19.699Z,1.70
2019-01-10T04:33:48.124Z,1.30
2019-01-10T04:36:16.754Z,1.83
2019-01-10T04:38:45.184Z,1.60
2019-01-10T04:41:13.902Z,2.03
2019-01-10T04:43:42.951Z,2.07
2019-01-10T04:46:11.728Z,1.90
2019-01-10T04:48:40.437Z,2.30
2019-01-10T04:51:09.512Z,1.33
2019-01-10T04:53:38.299Z,2.20
2019-01-10T04:56:06.724Z,2.40
2019-01-10T04:58:35.185Z,2.23
2019-01-10T05:01:03.788Z,2.30
2019-01-10T05:03:32.204Z,1.67
2019-01-10T05:06:01.012Z,1.50
2019-01-10T05:08:29.807Z,1.60
2019-01-10T05:10:58.528Z,1.60
2019-01-10T05:13:27.278Z,1.50
2019-01-10T05:15:55.711Z,1.57
2019-01-10T05:18:24.446Z,1.60
2019-01-10T05:20:52.902Z,1.60
2019-01-10T05:23:22.242Z,1.53
2019-01-10T05:25:50.741Z,1.50
2019-01-10T05:28:19.297Z,1.80
2019-01-10T05:30:47.997Z,1.30
2019-01-10T05:33:16.439Z,0.90
2019-01-10T05:35:45.248Z,2.00
2019-01-10T05:38:14.035Z,2.17
2019-01-10T05:40:42.830Z,2.10
2019-01-10T05:43:11.624Z,1.80
2019-01-10T05:45:40.076Z,1.53
2019-01-10T05:48:08.584Z,1.50
2019-01-10T05:50:37.367Z,1.30
2019-01-10T05:53:06.153Z,1.60
2019-01-10T05:55:34.871Z,2.03
2019-01-10T05:58:03.628Z,1.97
2019-01-10T06:00:32.148Z,1.23
2019-01-10T06:03:00.581Z,1.30
2019-01-10T06:05:29.200Z,1.87
2019-01-10T06:07:57.985Z,1.53
2019-01-10T06:10:27.725Z,1.60
2019-01-10T06:12:56.252Z,1.57
2019-01-10T06:15:24.924Z,1.00
2019-01-10T06:17:53.429Z,0.90
2019-01-10T06:20:24.125Z,1.67
2019-01-10T06:22:52.911Z,1.57
2019-01-10T06:25:21.410Z,1.60
2019-01-10T06:27:50.143Z,1.33
2019-01-10T06:30:20.988Z,2.10
2019-01-10T06:32:49.793Z,2.10
2019-01-10T06:35:18.313Z,1.70
2019-01-10T06:37:47.129Z,1.97
2019-01-10T06:40:18.106Z,1.77
2019-01-10T06:42:46.924Z,1.87
2019-01-10T06:45:17.099Z,1.80
2019-01-10T06:47:46.228Z,1.93
2019-01-10T06:50:16.730Z,1.73
2019-01-10T06:52:45.226Z,1.77
2019-01-10T06:55:13.785Z,1.50
2019-01-10T06:57:42.577Z,2.00
2019-01-10T07:00:16.717Z,2.20
2019-01-10T07:02:45.505Z,1.83
2019-01-10T07:05:14.193Z,1.77
2019-01-10T07:07:42.627Z,1.67
2019-01-10T07:10:14.700Z,2.33
2019-01-10T07:12:43.444Z,2.00
2019-01-10T07:15:12.399Z,2.37
2019-01-10T07:17:41.096Z,2.13
2019-01-10T07:20:11.980Z,1.90
2019-01-10T07:22:49.160Z,2.07
2019-01-10T07:25:17.887Z,3.53
2019-01-10T07:27:46.742Z,2.37
2019-01-10T07:30:21.239Z,2.67
2019-01-10T07:32:49.993Z,1.80
2019-01-10T07:35:18.723Z,2.00
2019-01-10T07:37:52.164Z,2.00
2019-01-10T07:40:21.202Z,2.87
2019-01-10T07:42:50.033Z,2.23
2019-01-10T07:45:21.386Z,2.57
2019-01-10T07:47:50.591Z,2.80
2019-01-10T07:50:21.672Z,3.53
2019-01-10T07:52:50.376Z,3.20
2019-01-10T07:55:19.510Z,2.93
2019-01-10T07:57:48.218Z,2.40
2019-01-10T08:00:19.073Z,1.73
2019-01-10T08:02:47.607Z,3.10
2019-01-10T08:05:16.105Z,2.87
2019-01-10T08:07:44.954Z,3.20
2019-01-10T08:10:15.999Z,2.70
2019-01-10T08:12:44.782Z,3.20
2019-01-10T08:15:16.554Z,2.50
2019-01-10T08:17:45.427Z,2.43
2019-01-10T08:20:14.677Z,2.40
2019-01-10T08:22:43.565Z,2.90
2019-01-10T08:25:12.307Z,3.30
2019-01-10T08:27:41.095Z,3.10
2019-01-10T08:30:18.558Z,3.60
2019-01-10T08:32:47.263Z,2.73
2019-01-10T08:35:17.932Z,2.70
2019-01-10T08:37:46.459Z,2.73
2019-01-10T08:40:15.352Z,2.90
2019-01-10T08:42:44.137Z,2.93
2019-01-10T08:45:21.514Z,3.00
2019-01-10T08:47:47.545Z,3.07
2019-01-10T08:50:19.228Z,2.43
2019-01-10T08:52:48.032Z,3.07
2019-01-10T08:55:16.612Z,3.10
2019-01-10T08:57:45.683Z,3.10
2019-01-10T09:00:17.125Z,3.03
2019-01-10T09:02:46.174Z,2.70
2019-01-10T09:05:15.135Z,2.23
2019-01-10T09:07:44.003Z,2.80
2019-01-10T09:10:15.716Z,2.93
2019-01-10T09:12:44.324Z,2.90
2019-01-10T09:15:13.295Z,3.30
2019-01-10T09:17:42.006Z,2.57
2019-01-10T09:20:13.365Z,3.40
2019-01-10T09:22:42.074Z,2.63
2019-01-10T09:25:10.928Z,3.07
2019-01-10T09:27:39.723Z,4.30
2019-01-10T09:30:11.501Z,3.13
2019-01-10T09:32:39.919Z,3.10
2019-01-10T09:35:08.518Z,2.47
2019-01-10T09:37:37.304Z,2.97
2019-01-10T09:40:09.242Z,3.00
2019-01-10T09:42:38.086Z,3.33
2019-01-10T09:45:08.940Z,3.17
2019-01-10T09:47:37.481Z,2.67
2019-01-10T09:50:09.442Z,2.90
2019-01-10T09:52:37.861Z,2.57
2019-01-10T09:55:06.622Z,2.70
2019-01-10T09:57:35.174Z,2.90
2019-01-10T10:00:05.575Z,3.10
2019-01-10T10:02:34.001Z,4.30
2019-01-10T10:05:02.778Z,3.70
2019-01-10T10:07:31.268Z,3.23
2019-01-10T10:09:59.759Z,3.67
2019-01-10T10:12:28.206Z,3.03
2019-01-10T10:14:56.632Z,3.10
2019-01-10T10:17:25.051Z,2.70
2019-01-10T10:19:53.505Z,2.43
2019-01-10T10:22:21.929Z,2.90
2019-01-10T10:24:50.352Z,1.93
2019-01-10T10:27:18.813Z,2.53
2019-01-10T10:29:47.231Z,2.90
2019-01-10T10:32:15.727Z,3.53
2019-01-10T10:34:44.175Z,2.40
2019-01-10T10:37:12.599Z,2.10
2019-01-10T10:39:41.087Z,3.03
2019-01-10T10:42:09.606Z,2.40
2019-01-10T10:44:38.037Z,2.10
2019-01-10T10:47:06.655Z,2.20
2019-01-10T10:49:35.179Z,2.70
2019-01-10T10:52:03.767Z,1.77
2019-01-10T10:54:32.191Z,2.37
2019-01-10T10:57:00.647Z,2.90
2019-01-10T10:59:29.072Z,3.33
2019-01-10T11:01:57.565Z,2.70
2019-01-10T11:04:26.015Z,2.23
2019-01-10T11:06:54.583Z,2.40
2019-01-10T11:09:23.071Z,2.73
2019-01-10T11:11:51.520Z,4.00
2019-01-10T11:14:19.943Z,2.80
2019-01-10T11:16:48.364Z,3.70
2019-01-10T11:19:16.832Z,3.13
2019-01-10T11:21:45.256Z,3.10
2019-01-10T11:24:13.820Z,3.27
2019-01-10T11:26:42.268Z,3.43
2019-01-10T11:29:10.687Z,3.23
2019-01-10T11:31:39.107Z,2.27
2019-01-10T11:34:07.563Z,3.40
2019-01-10T11:36:36.331Z,3.40
2019-01-10T11:39:07.272Z,2.77
2019-01-10T11:41:35.765Z,3.37
2019-01-10T11:44:04.428Z,2.53
2019-01-10T11:46:32.935Z,2.60
2019-01-10T11:49:01.379Z,2.57
2019-01-10T11:51:29.875Z,3.00
2019-01-10T11:53:58.367Z,2.50
2019-01-10T11:56:26.893Z,2.40
2019-01-10T11:58:55.318Z,2.50
2019-01-10T12:01:23.742Z,3.23
2019-01-10T12:03:52.198Z,2.67
2019-01-10T12:06:20.631Z,3.00
2019-01-10T12:08:49.052Z,3.30
2019-01-10T12:11:17.576Z,2.50
2019-01-10T12:13:46.146Z,2.77
2019-01-10T12:16:14.642Z,3.20
2019-01-10T12:18:43.231Z,3.00
2019-01-10T12:21:11.651Z,2.63
2019-01-10T12:23:40.074Z,2.60
2019-01-10T12:26:08.863Z,3.40
2019-01-10T12:28:37.366Z,2.40
2019-01-10T12:31:05.927Z,2.23
2019-01-10T12:33:34.386Z,2.40
2019-01-10T12:36:02.879Z,2.40
2019-01-10T12:38:31.300Z,2.37
2019-01-10T12:40:59.747Z,2.73
2019-01-10T12:43:28.168Z,3.07
2019-01-10T12:45:56.660Z,1.90
2019-01-10T12:48:25.107Z,3.33
2019-01-10T12:50:53.527Z,3.00
2019-01-10T12:53:22.019Z,2.17
2019-01-10T12:55:50.473Z,2.73
2019-01-10T12:58:18.897Z,2.50
2019-01-10T13:00:47.387Z,2.60
2019-01-10T13:03:16.296Z,3.10
2019-01-10T13:05:44.750Z,2.80
2019-01-10T13:08:13.163Z,3.30
2019-01-10T13:10:41.611Z,3.80
2019-01-10T13:13:10.111Z,2.70
2019-01-10T13:15:38.538Z,3.80
2019-01-10T13:18:07.435Z,3.00
2019-01-10T13:20:36.023Z,3.23
2019-01-10T13:23:04.884Z,2.97
2019-01-10T13:25:33.341Z,3.97
2019-01-10T13:28:01.780Z,3.87
2019-01-10T13:30:30.341Z,3.90
2019-01-10T13:32:58.944Z,3.13
2019-01-10T13:35:27.363Z,3.40
2019-01-10T13:37:56.226Z,3.30
2019-01-10T13:40:24.911Z,3.10
2019-01-10T13:42:53.335Z,3.30
2019-01-10T13:45:21.896Z,2.90
2019-01-10T13:47:50.505Z,3.73
2019-01-10T13:50:22.083Z,3.50
2019-01-10T13:52:50.604Z,3.30
2019-01-10T13:55:20.179Z,2.87
2019-01-10T13:57:48.811Z,2.53
2019-01-10T14:00:22.832Z,2.43
2019-01-10T14:02:51.239Z,2.40
2019-01-10T14:05:19.731Z,2.17
2019-01-10T14:07:48.572Z,2.57
2019-01-10T14:10:18.127Z,1.60
2019-01-10T14:12:46.688Z,1.40
2019-01-10T14:15:21.070Z,1.27
2019-01-10T14:17:49.634Z,1.70
2019-01-10T14:20:18.192Z,1.53
2019-01-10T14:22:46.887Z,2.00
2019-01-10T14:25:15.749Z,2.13
2019-01-10T14:27:44.711Z,1.73
2019-01-10T14:30:18.999Z,1.10
2019-01-10T14:32:47.490Z,1.50
2019-01-10T14:35:16.151Z,2.00
2019-01-10T14:37:44.678Z,1.97
2019-01-10T14:40:13.743Z,2.93
2019-01-10T14:42:42.235Z,2.00
2019-01-10T14:45:16.637Z,2.00
2019-01-10T14:47:45.124Z,3.10
2019-01-10T14:50:14.995Z,3.00
2019-01-10T14:52:43.663Z,2.70
2019-01-10T14:55:13.923Z,2.50
2019-01-10T14:57:42.416Z,2.00
2019-01-10T15:00:16.751Z,1.83
2019-01-10T15:02:45.247Z,2.47
2019-01-10T15:05:13.809Z,2.27
2019-01-10T15:07:42.323Z,2.00
2019-01-10T15:10:11.485Z,1.93
2019-01-10T15:12:40.145Z,1.50
2019-01-10T15:15:11.887Z,1.93
2019-01-10T15:17:40.378Z,2.60
2019-01-10T15:20:14.913Z,1.93
2019-01-10T15:22:43.440Z,1.30
2019-01-10T15:25:12.000Z,2.30
2019-01-10T15:27:40.467Z,1.57
2019-01-10T15:30:17.328Z,1.73
2019-01-10T15:32:45.887Z,1.60
2019-01-10T15:35:14.953Z,2.07
2019-01-10T15:37:43.548Z,2.20
2019-01-10T15:40:23.682Z,2.40
2019-01-10T15:42:52.281Z,1.90
2019-01-10T15:45:20.840Z,2.20
2019-01-10T15:47:49.331Z,1.60
2019-01-10T15:50:19.259Z,1.70
2019-01-10T15:52:47.819Z,1.23
2019-01-10T15:55:18.380Z,1.10
2019-01-10T15:57:46.904Z,1.37
2019-01-10T16:00:18.099Z,1.63
2019-01-10T16:02:46.676Z,1.20
2019-01-10T16:05:15.199Z,1.40
2019-01-10T16:07:43.705Z,2.00
2019-01-10T16:10:14.564Z,1.50
2019-01-10T16:12:43.023Z,1.03
2019-01-10T16:15:16.715Z,1.37
2019-01-10T16:17:45.275Z,1.60
2019-01-10T16:20:14.661Z,1.20
2019-01-10T16:22:43.519Z,1.27
2019-01-10T16:25:14.479Z,1.13
2019-01-10T16:27:42.999Z,1.37
2019-01-10T16:30:14.443Z,1.57
2019-01-10T16:32:42.975Z,1.27
2019-01-10T16:35:11.603Z,1.47
2019-01-10T16:37:40.092Z,2.00
2019-01-10T16:40:10.955Z,1.03
2019-01-10T16:42:39.494Z,1.10
2019-01-10T16:45:10.968Z,1.00
2019-01-10T16:47:39.470Z,1.00
2019-01-10T16:50:11.280Z,0.90
2019-01-10T16:52:39.679Z,0.70
2019-01-10T16:55:09.442Z,0.70
2019-01-10T16:57:38.313Z,0.83
2019-01-10T17:00:27.625Z,1.07
2019-01-10T17:02:56.168Z,0.90
2019-01-10T17:05:24.713Z,1.50
2019-01-10T17:07:53.207Z,1.30
2019-01-10T17:10:21.901Z,0.93
2019-01-10T17:12:50.393Z,1.23
2019-01-10T17:15:19.085Z,1.20
2019-01-10T17:17:47.563Z,1.00
2019-01-10T17:20:21.964Z,1.03
2019-01-10T17:22:50.541Z,1.00
2019-01-10T17:25:19.235Z,0.90
2019-01-10T17:27:47.803Z,1.20
2019-01-10T17:30:27.800Z,1.07
2019-01-10T17:32:56.313Z,1.20
2019-01-10T17:35:27.076Z,0.70
2019-01-10T17:37:55.674Z,1.70
2019-01-10T17:40:24.942Z,1.30
2019-01-10T17:42:53.712Z,1.17
2019-01-10T17:45:25.329Z,1.40
2019-01-10T17:47:53.969Z,0.90
2019-01-10T17:50:22.575Z,1.50
2019-01-10T17:52:51.195Z,1.03
2019-01-10T17:55:19.615Z,1.13
2019-01-10T17:57:48.120Z,0.90
2019-01-10T18:00:22.189Z,1.33
2019-01-10T18:02:50.631Z,1.47
2019-01-10T18:05:19.132Z,1.00
2019-01-10T18:07:47.590Z,1.10
2019-01-10T18:10:19.534Z,1.03
2019-01-10T18:12:48.032Z,1.50
2019-01-10T18:15:18.944Z,0.80
2019-01-10T18:17:50.381Z,1.60
2019-01-10T18:20:20.424Z,1.23
2019-01-10T18:22:48.951Z,1.77
2019-01-10T18:25:17.528Z,1.40
2019-01-10T18:27:45.988Z,1.30
2019-01-10T18:30:17.430Z,1.90
2019-01-10T18:32:45.991Z,1.10
2019-01-10T18:35:14.830Z,1.40
2019-01-10T18:37:43.537Z,1.57
2019-01-10T18:40:14.740Z,1.73
2019-01-10T18:42:43.242Z,1.60
2019-01-10T18:45:15.579Z,1.53
2019-01-10T18:47:44.053Z,1.33
2019-01-10T18:50:15.565Z,1.53
2019-01-10T18:52:44.243Z,1.50
2019-01-10T18:55:12.821Z,1.40
2019-01-10T18:57:41.350Z,1.90
2019-01-10T19:00:15.650Z,2.20
2019-01-10T19:02:44.207Z,2.60
2019-01-10T19:05:12.776Z,2.67
2019-01-10T19:07:41.343Z,2.53
2019-01-10T19:10:13.074Z,2.27
2019-01-10T19:12:41.524Z,2.10
2019-01-10T19:15:10.663Z,2.87
2019-01-10T19:17:39.166Z,3.13
2019-01-10T19:20:11.103Z,2.43
2019-01-10T19:22:39.732Z,2.30
2019-01-10T19:25:08.392Z,1.77
2019-01-10T19:27:36.884Z,2.60
2019-01-10T19:30:11.475Z,2.50
2019-01-10T19:32:39.943Z,2.50
2019-01-10T19:35:09.319Z,2.30
2019-01-10T19:37:37.919Z,2.83
2019-01-10T19:40:12.214Z,2.97
2019-01-10T19:42:40.647Z,1.93
2019-01-10T19:45:11.993Z,1.90
2019-01-10T19:47:40.483Z,2.73
2019-01-10T19:50:12.192Z,2.90
2019-01-10T19:52:40.675Z,2.50
2019-01-10T19:55:10.799Z,3.37
2019-01-10T19:57:39.241Z,2.30
2019-01-10T20:00:19.570Z,2.33
2019-01-10T20:02:48.135Z,2.63
2019-01-10T20:05:16.711Z,2.40
2019-01-10T20:07:45.397Z,3.50
2019-01-10T20:10:15.376Z,5.60
2019-01-10T20:12:43.941Z,3.90
2019-01-10T20:15:12.955Z,3.03
2019-01-10T20:17:41.381Z,3.03
2019-01-10T20:20:19.129Z,3.17
2019-01-10T20:22:47.731Z,2.50
2019-01-10T20:25:16.309Z,2.77
2019-01-10T20:27:44.857Z,3.10
2019-01-10T20:30:16.587Z,2.47
2019-01-10T20:32:45.111Z,2.63
2019-01-10T20:35:14.101Z,2.60
2019-01-10T20:37:42.555Z,3.60
2019-01-10T20:40:13.894Z,3.00
2019-01-10T20:42:42.666Z,2.73
2019-01-10T20:45:11.535Z,3.20
2019-01-10T20:47:39.993Z,2.23
2019-01-10T20:50:13.728Z,2.90
2019-01-10T20:52:42.249Z,2.80
2019-01-10T20:55:12.910Z,2.90
2019-01-10T20:57:41.535Z,2.00
2019-01-10T21:00:13.139Z,3.40
2019-01-10T21:02:41.769Z,2.10
2019-01-10T21:05:10.442Z,2.17
2019-01-10T21:07:38.871Z,2.57
2019-01-10T21:10:13.517Z,3.03
2019-01-10T21:12:42.188Z,2.43
2019-01-10T21:15:13.686Z,2.77
2019-01-10T21:17:42.188Z,2.90
2019-01-10T21:20:11.790Z,3.20
2019-01-10T21:22:40.353Z,3.47
2019-01-10T21:25:11.092Z,2.93
2019-01-10T21:27:40.321Z,3.03
2019-01-10T21:30:11.858Z,3.13
2019-01-10T21:32:40.935Z,2.53
2019-01-10T21:35:09.865Z,3.70
2019-01-10T21:37:38.272Z,3.43
2019-01-10T21:40:12.361Z,3.97
2019-01-10T21:42:40.903Z,5.47
2019-01-10T21:45:12.331Z,5.80
2019-01-10T21:47:40.758Z,5.77
2019-01-10T21:50:22.022Z,6.23
2019-01-10T21:52:50.627Z,6.20
2019-01-10T21:55:19.057Z,7.00
2019-01-10T21:57:47.821Z,7.43
2019-01-10T22:00:19.292Z,5.97
2019-01-10T22:02:47.783Z,4.83
2019-01-10T22:05:16.309Z,4.67
2019-01-10T22:07:45.099Z,4.10
2019-01-10T22:10:13.965Z,4.67
2019-01-10T22:12:42.450Z,4.27
2019-01-10T22:15:15.968Z,3.57
2019-01-10T22:17:44.462Z,4.00
2019-01-10T22:20:18.582Z,4.23
2019-01-10T22:22:47.147Z,3.77
2019-01-10T22:25:15.639Z,4.50
2019-01-10T22:27:44.170Z,4.13
2019-01-10T22:30:19.024Z,5.13
2019-01-10T22:32:48.097Z,4.83
2019-01-10T22:35:18.604Z,4.63
2019-01-10T22:37:47.087Z,4.80
2019-01-10T22:40:17.747Z,4.23
2019-01-10T22:42:46.332Z,4.03
2019-01-10T22:45:16.099Z,3.77
2019-01-10T22:47:44.590Z,3.40
2019-01-10T22:50:15.892Z,5.03
2019-01-10T22:52:44.383Z,4.07
2019-01-10T22:55:14.141Z,3.60
2019-01-10T22:57:42.744Z,2.90
2019-01-10T23:00:20.891Z,3.40
2019-01-10T23:02:52.491Z,4.30
2019-01-10T23:05:20.983Z,2.83
2019-01-10T23:07:49.471Z,3.30
2019-01-10T23:10:18.025Z,2.90
2019-01-10T23:12:46.461Z,3.60
2019-01-10T23:15:17.964Z,3.10
2019-01-10T23:17:52.310Z,3.20
2019-01-10T23:20:21.099Z,2.53
2019-01-10T23:22:49.523Z,3.13
2019-01-10T23:25:18.115Z,2.60
2019-01-10T23:27:47.043Z,3.10
2019-01-10T23:30:15.721Z,2.97
2019-01-10T23:32:44.452Z,2.63
2019-01-10T23:35:12.980Z,3.70
2019-01-10T23:37:41.425Z,3.10
2019-01-10T23:40:10.515Z,4.33
2019-01-10T23:42:39.007Z,3.30
2019-01-10T23:45:08.582Z,4.77
2019-01-10T23:47:37.235Z,5.20
2019-01-10T23:50:07.500Z,5.87
2019-01-10T23:52:36.007Z,6.37
2019-01-10T23:55:05.860Z,6.50
2019-01-10T23:57:34.283Z,5.30
